createdAt,value
2023-04-14T03:10:28.221Z,96682.69
2023-04-14T03:13:00.646Z,96679.34
2023-04-14T03:15:27.870Z,96678.86
2023-04-14T03:17:57.237Z,96671.63
2023-04-14T03:20:27.247Z,96671.64
2023-04-14T03:22:58.634Z,96670.23
2023-04-14T03:25:30.999Z,96669.41
2023-04-14T03:28:02.050Z,96669.02
2023-04-14T03:30:31.245Z,96664.06
2023-04-14T03:33:08.847Z,96657.23
2023-04-14T03:35:37.073Z,96661.50
2023-04-14T03:38:07.742Z,96661.45
2023-04-14T03:40:41.408Z,96655.56
2023-04-14T03:43:12.495Z,96656.94
2023-04-14T03:48:23.826Z,96650.99
2023-04-14T03:50:52.145Z,96650.72
2023-04-14T03:53:20.864Z,96640.95
2023-04-14T03:55:54.633Z,96636.73
2023-04-14T03:58:21.944Z,96636.01
2023-04-14T04:00:51.544Z,96635.78
2023-04-14T04:03:21.093Z,96635.15
2023-04-14T04:05:49.197Z,96638.41
2023-04-14T04:08:16.606Z,96641.27
2023-04-14T04:10:46.514Z,96646.47
2023-04-14T04:13:20.664Z,96645.46
2023-04-14T04:15:49.118Z,96645.85
2023-04-14T04:18:19.805Z,96645.89
2023-04-14T04:20:48.537Z,96650.30
2023-04-14T04:23:22.641Z,96650.67
2023-04-14T04:25:51.077Z,96653.60
2023-04-14T04:28:24.034Z,96652.67
2023-04-14T04:30:54.374Z,96652.64
2023-04-14T04:33:25.212Z,96651.34
2023-04-14T04:35:54.714Z,96654.83
2023-04-14T04:38:23.784Z,96653.91
2023-04-14T04:40:50.857Z,96651.02
2023-04-14T04:43:26.694Z,96647.69
2023-04-14T04:46:12.213Z,96648.95
2023-04-14T04:48:38.812Z,96653.06
2023-04-14T04:51:05.192Z,96657.03
2023-04-14T04:53:31.550Z,96656.21
2023-04-14T04:55:57.855Z,96654.02
2023-04-14T04:58:24.118Z,96658.58
2023-04-14T05:00:50.514Z,96660.44
2023-04-14T05:03:16.873Z,96665.91
2023-04-14T05:05:43.228Z,96665.33
2023-04-14T05:08:10.405Z,96664.18
2023-04-14T05:10:37.874Z,96662.45
2023-04-14T05:13:04.172Z,96658.73
2023-04-14T05:15:30.441Z,96658.73
2023-04-14T05:17:56.714Z,96652.56
2023-04-14T05:20:23.070Z,96649.79
2023-04-14T05:22:49.430Z,96650.46
2023-04-14T05:25:15.711Z,96649.15
2023-04-14T05:27:41.952Z,96651.81
2023-04-14T05:30:08.475Z,96648.97
2023-04-14T05:32:35.031Z,96648.67
2023-04-14T05:35:02.317Z,96643.01
2023-04-14T05:37:28.606Z,96637.19
2023-04-14T05:39:54.963Z,96632.68
2023-04-14T05:42:21.227Z,96627.35
2023-04-14T05:44:47.495Z,96627.20
2023-04-14T05:47:13.921Z,96621.05
2023-04-14T05:49:40.359Z,96617.86
2023-04-14T05:52:06.614Z,96615.41
2023-04-14T05:54:33.058Z,96611.69
2023-04-14T05:56:59.301Z,96607.59
2023-04-14T05:59:25.543Z,96603.97
2023-04-14T06:01:52.107Z,96596.81
2023-04-14T06:04:18.583Z,96597.73
2023-04-14T06:06:45.026Z,96592.61
2023-04-14T06:09:11.291Z,96585.15
2023-04-14T06:11:37.530Z,96581.47
2023-04-14T06:14:03.873Z,96577.80
2023-04-14T06:16:30.264Z,96575.49
2023-04-14T06:18:56.569Z,96574.31
2023-04-14T06:21:22.839Z,96578.98
2023-04-14T06:23:49.099Z,96569.98
2023-04-14T06:26:15.375Z,96564.55
2023-04-14T06:28:43.713Z,96561.19
2023-04-14T06:31:10.366Z,96562.77
2023-04-14T06:33:36.931Z,96571.21
2023-04-14T06:36:03.337Z,96574.75
2023-04-14T06:38:29.626Z,96580.67
2023-04-14T06:40:55.895Z,96582.98
2023-04-14T06:43:22.210Z,96584.58
2023-04-14T06:45:48.612Z,96588.45
2023-04-14T06:48:14.859Z,96590.30
2023-04-14T06:50:42.691Z,96589.22
2023-04-14T06:53:10.497Z,96588.30
2023-04-14T06:55:39.693Z,96587.73
2023-04-14T06:58:06.007Z,96588.13
2023-04-14T07:00:32.310Z,96585.63
2023-04-14T07:02:58.690Z,96581.64
2023-04-14T07:05:25.206Z,96580.40
2023-04-14T07:07:51.515Z,96575.55
2023-04-14T07:10:17.848Z,96573.38
2023-04-14T07:12:44.308Z,96573.20
2023-04-14T07:15:10.805Z,96568.95
2023-04-14T07:17:37.172Z,96572.34
2023-04-14T07:20:03.715Z,96569.68
2023-04-14T07:22:30.024Z,96566.25
2023-04-14T07:24:56.292Z,96564.21
2023-04-14T07:27:22.618Z,96562.45
2023-04-14T07:29:49.324Z,96561.20
2023-04-14T07:32:15.684Z,96557.75
2023-04-14T07:34:42.052Z,96553.47
2023-04-14T07:37:08.945Z,96548.88
2023-04-14T07:39:35.491Z,96544.41
2023-04-14T07:42:01.815Z,96542.62
2023-04-14T07:44:28.514Z,96535.93
2023-04-14T07:46:54.748Z,96536.59
2023-04-14T07:49:21.023Z,96531.55
2023-04-14T07:51:47.462Z,96525.91
2023-04-14T07:54:13.723Z,96527.77
2023-04-14T07:56:40.051Z,96531.25
2023-04-14T07:59:06.775Z,96538.45
2023-04-14T08:01:33.065Z,96540.44
2023-04-14T08:03:59.575Z,96543.59
2023-04-14T08:06:26.275Z,96539.21
2023-04-14T08:08:52.569Z,96534.06
2023-04-14T08:11:18.871Z,96538.63
2023-04-14T08:13:45.890Z,96532.83
2023-04-14T08:16:12.215Z,96533.50
2023-04-14T08:18:39.614Z,96535.81
2023-04-14T08:21:06.144Z,96532.17
2023-04-14T08:23:32.918Z,96527.21
2023-04-14T08:25:59.244Z,96529.50
2023-04-14T08:28:27.350Z,96530.59
2023-04-14T08:30:53.611Z,96533.91
2023-04-14T08:33:20.044Z,96524.45
2023-04-14T08:35:46.728Z,96525.66
2023-04-14T08:38:24.384Z,96515.83
2023-04-14T08:40:54.187Z,96513.96
2023-04-14T08:43:20.510Z,96514.20
2023-04-14T08:45:48.994Z,96509.88
2023-04-14T08:48:18.766Z,96501.41
2023-04-14T08:51:05.440Z,96495.04
2023-04-14T08:53:35.977Z,96493.59
2023-04-14T08:56:03.641Z,96494.51
2023-04-14T08:58:32.642Z,96493.60
2023-04-14T09:00:59.718Z,96489.63
2023-04-14T09:03:26.498Z,96486.36
2023-04-14T09:05:53.534Z,96493.46
2023-04-14T09:08:20.542Z,96492.85
2023-04-14T09:10:46.917Z,96496.31
2023-04-14T09:13:15.589Z,96493.30
2023-04-14T09:15:42.604Z,96495.73
2023-04-14T09:18:10.044Z,96503.98
2023-04-14T09:20:40.793Z,96492.77
2023-04-14T09:23:08.711Z,96496.79
2023-04-14T09:25:34.988Z,96507.32
2023-04-14T09:28:01.331Z,96503.51
2023-04-14T09:30:28.293Z,96499.14
2023-04-14T09:32:54.582Z,96494.94
2023-04-14T09:35:20.941Z,96493.16
2023-04-14T09:37:47.829Z,96490.89
2023-04-14T09:40:27.226Z,96490.67
2023-04-14T09:42:55.178Z,96478.85
2023-04-14T09:45:21.511Z,96479.39
2023-04-14T09:47:48.355Z,96479.42
2023-04-14T09:50:15.053Z,96477.59
2023-04-14T09:52:42.168Z,96480.66
2023-04-14T09:55:15.462Z,96481.88
2023-04-14T09:57:45.813Z,96478.83
2023-04-14T10:00:14.916Z,96482.61
2023-04-14T10:02:51.816Z,96482.81
2023-04-14T10:05:19.098Z,96479.05
2023-04-14T10:07:45.579Z,96482.34
2023-04-14T10:10:12.318Z,96474.02
2023-04-14T10:12:42.323Z,96473.73
2023-04-14T10:15:09.287Z,96467.96
2023-04-14T10:17:35.966Z,96462.71
2023-04-14T10:20:02.560Z,96460.96
2023-04-14T10:22:29.251Z,96463.45
2023-04-14T10:24:57.974Z,96466.29
2023-04-14T10:27:30.211Z,96461.20
2023-04-14T10:29:57.400Z,96460.44
2023-04-14T10:32:25.877Z,96450.13
2023-04-14T10:34:55.226Z,96447.18
2023-04-14T10:37:21.538Z,96451.58
2023-04-14T10:39:57.701Z,96448.70
2023-04-14T10:42:24.558Z,96446.16
2023-04-14T10:45:03.628Z,96444.48
2023-04-14T10:47:30.353Z,96449.50
2023-04-14T10:49:56.914Z,96445.50
2023-04-14T10:52:26.514Z,96443.54
2023-04-14T10:54:53.914Z,96442.88
2023-04-14T10:57:24.082Z,96441.53
2023-04-14T10:59:53.652Z,96445.58
2023-04-14T11:02:30.977Z,96448.17
2023-04-14T11:05:07.310Z,96441.17
2023-04-14T11:07:38.213Z,96442.26
2023-04-14T11:10:17.034Z,96436.89
2023-04-14T11:12:43.763Z,96428.98
2023-04-14T11:15:10.294Z,96427.21
2023-04-14T11:17:37.346Z,96428.36
2023-04-14T11:20:17.152Z,96428.02
2023-04-14T11:22:44.656Z,96421.08
2023-04-14T11:25:12.234Z,96421.31
2023-04-14T11:27:39.053Z,96420.70
2023-04-14T11:30:06.168Z,96416.23
2023-04-14T11:32:52.327Z,96407.02
2023-04-14T11:35:20.069Z,96403.36
2023-04-14T11:38:00.570Z,96404.48
2023-04-14T11:40:28.103Z,96402.66
2023-04-14T11:42:55.953Z,96403.20
2023-04-14T11:45:26.104Z,96397.45
2023-04-14T11:48:04.471Z,96397.94
2023-04-14T11:50:32.330Z,96407.98
2023-04-14T11:52:59.328Z,96406.17
2023-04-14T11:55:26.587Z,96402.39
2023-04-14T11:57:53.840Z,96409.63
2023-04-14T12:00:20.330Z,96403.37
2023-04-14T12:02:46.838Z,96400.51
2023-04-14T12:05:18.442Z,96393.51
2023-04-14T12:07:44.757Z,96399.29
2023-04-14T12:10:11.220Z,96396.02
2023-04-14T12:12:38.066Z,96395.16
2023-04-14T12:15:04.643Z,96392.20
2023-04-14T12:17:31.128Z,96388.90
2023-04-14T12:19:59.133Z,96389.26
2023-04-14T12:22:26.420Z,96386.85
2023-04-14T12:24:53.193Z,96386.82
2023-04-14T12:27:21.536Z,96387.36
2023-04-14T12:29:47.821Z,96380.31
2023-04-14T12:32:14.267Z,96378.08
2023-04-14T12:34:40.865Z,96373.08
2023-04-14T12:37:11.210Z,96375.45
2023-04-14T12:39:50.448Z,96370.81
2023-04-14T12:42:16.862Z,96368.96
2023-04-14T12:44:52.936Z,96372.60
2023-04-14T12:47:34.444Z,96368.11
2023-04-14T12:50:22.336Z,96364.13
2023-04-14T12:52:51.702Z,96358.80
2023-04-14T12:55:29.748Z,96361.12
2023-04-14T12:58:05.903Z,96357.82
2023-04-14T13:26:22.760Z,96337.64
2023-04-14T13:28:49.054Z,96334.64
2023-04-14T13:31:16.257Z,96337.50
2023-04-14T13:33:42.789Z,96331.56
2023-04-14T13:36:09.057Z,96327.95
2023-04-14T13:38:35.374Z,96325.94
2023-04-14T13:41:01.754Z,96322.90
2023-04-14T13:43:28.229Z,96324.73
2023-04-14T13:45:57.872Z,96322.34
2023-04-14T13:48:24.370Z,96324.80
2023-04-14T13:50:51.387Z,96325.30
2023-04-14T13:53:17.751Z,96326.55
2023-04-14T13:55:44.263Z,96327.39
2023-04-14T13:58:10.603Z,96325.05
2023-04-14T14:00:36.910Z,96324.95
2023-04-14T14:03:03.408Z,96321.45
2023-04-14T14:05:30.135Z,96313.48
2023-04-14T14:07:56.452Z,96309.89
2023-04-14T14:10:23.001Z,96310.33
2023-04-14T14:12:49.775Z,96308.39
2023-04-14T14:15:16.192Z,96304.65
2023-04-14T14:17:42.594Z,96310.54
2023-04-14T14:20:09.195Z,96312.63
2023-04-14T14:22:35.542Z,96311.74
2023-04-14T14:25:17.500Z,96310.45
2023-04-14T14:27:44.742Z,96311.20
2023-04-14T14:30:11.716Z,96312.19
2023-04-14T14:32:38.035Z,96314.92
2023-04-14T14:35:04.695Z,96314.12
2023-04-14T14:37:30.979Z,96314.11
2023-04-14T14:39:57.273Z,96316.21
2023-04-14T14:42:23.763Z,96313.09
2023-04-14T14:44:50.072Z,96315.09
2023-04-14T14:47:16.357Z,96313.73
2023-04-14T14:49:53.000Z,96306.98
2023-04-14T14:52:33.214Z,96310.05
2023-04-14T14:55:00.033Z,96315.03
2023-04-14T14:57:26.431Z,96318.20
2023-04-14T14:59:52.985Z,96314.91
2023-04-14T15:02:19.823Z,96320.71
2023-04-14T15:04:46.328Z,96316.73
2023-04-14T15:07:12.863Z,96313.73
2023-04-14T15:09:39.696Z,96318.97
2023-04-14T15:12:06.146Z,96317.33
2023-04-14T15:14:32.574Z,96315.84
2023-04-14T15:16:58.987Z,96315.38
2023-04-14T15:19:25.305Z,96312.63
2023-04-14T15:21:51.855Z,96308.37
2023-04-14T15:24:18.227Z,96311.56
2023-04-14T15:26:44.536Z,96312.17
2023-04-14T15:29:10.848Z,96311.02
2023-04-14T15:31:37.451Z,96312.02
2023-04-14T15:34:04.172Z,96313.97
2023-04-14T15:39:42.280Z,96308.79
2023-04-14T15:42:09.448Z,96315.15
2023-04-14T15:44:42.144Z,96317.51
2023-04-14T15:47:08.856Z,96318.48
2023-04-14T15:49:38.824Z,96324.91
2023-04-14T15:52:15.670Z,96324.23
2023-04-14T15:54:45.681Z,96327.13
2023-04-14T15:57:21.807Z,96329.41
2023-04-14T16:00:05.781Z,96329.02
2023-04-14T16:03:06.930Z,96332.41
2023-04-14T16:05:33.824Z,96331.20
2023-04-14T16:08:07.666Z,96336.95
2023-04-14T16:10:38.071Z,96335.16
2023-04-14T16:13:04.642Z,96333.65
2023-04-14T16:15:31.194Z,96338.44
2023-04-14T16:17:57.634Z,96337.53
2023-04-14T16:20:24.256Z,96336.17
2023-04-14T16:22:50.730Z,96336.55
2023-04-14T16:25:17.239Z,96337.79
2023-04-14T16:27:43.701Z,96338.58
2023-04-14T16:30:10.436Z,96336.40
2023-04-14T16:32:36.979Z,96333.16
2023-04-14T16:35:03.630Z,96334.95
2023-04-14T16:37:30.470Z,96331.31
2023-04-14T16:40:01.362Z,96330.60
2023-04-14T16:42:29.737Z,96329.54
2023-04-14T16:44:56.201Z,96329.86
2023-04-14T16:47:22.817Z,96326.56
2023-04-14T16:49:49.554Z,96324.84
2023-04-14T16:52:16.150Z,96324.73
2023-04-14T16:54:42.874Z,96326.75
2023-04-14T16:57:09.934Z,96324.96
2023-04-14T16:59:36.547Z,96327.64
2023-04-14T17:02:03.264Z,96327.58
2023-04-14T17:04:30.069Z,96328.11
2023-04-14T17:06:56.772Z,96329.94
2023-04-14T17:09:23.503Z,96326.79
2023-04-14T17:11:49.970Z,96327.84
2023-04-14T17:14:16.429Z,96328.98
2023-04-14T17:16:43.113Z,96332.02
2023-04-14T17:19:09.754Z,96331.09
2023-04-14T17:21:36.248Z,96337.58
2023-04-14T17:24:03.040Z,96334.14
2023-04-14T17:26:29.675Z,96337.68
2023-04-14T17:28:56.183Z,96342.55
2023-04-14T17:31:22.769Z,96340.15
2023-04-14T17:33:49.474Z,96343.96
2023-04-14T17:36:15.985Z,96342.14
2023-04-14T17:38:42.894Z,96339.81
2023-04-14T17:41:10.968Z,96343.09
2023-04-14T17:43:38.653Z,96343.06
2023-04-14T17:46:05.232Z,96345.96
2023-04-14T17:48:31.938Z,96349.80
2023-04-14T17:50:59.090Z,96349.55
2023-04-14T17:53:25.765Z,96352.94
2023-04-14T17:55:52.810Z,96353.23
2023-04-14T17:58:19.901Z,96349.88
2023-04-14T18:00:46.842Z,96346.06
2023-04-14T18:03:14.584Z,96351.27
2023-04-14T18:05:41.666Z,96351.30
2023-04-14T18:08:08.278Z,96356.56
2023-04-14T18:10:35.000Z,96361.32
2023-04-14T18:13:01.545Z,96362.68
2023-04-14T18:15:28.096Z,96363.10
2023-04-14T18:17:54.912Z,96366.54
2023-04-14T18:20:22.771Z,96366.77
2023-04-14T18:22:49.415Z,96369.01
2023-04-14T18:25:17.461Z,96365.10
2023-04-14T18:30:38.627Z,96363.21
2023-04-14T18:33:06.177Z,96365.31
2023-04-14T18:35:41.778Z,96369.45
2023-04-14T18:38:15.203Z,96368.75
2023-04-14T18:40:46.917Z,96372.77
2023-04-14T18:43:13.728Z,96373.71
2023-04-14T18:45:43.754Z,96373.05
2023-04-14T18:48:10.395Z,96374.52
2023-04-14T18:50:36.911Z,96376.45
2023-04-14T18:53:06.845Z,96378.60
2023-04-14T18:55:43.322Z,96375.60
2023-04-14T18:58:15.188Z,96373.69
2023-04-14T19:00:43.755Z,96370.16
2023-04-14T19:03:10.398Z,96367.44
2023-04-14T19:05:46.664Z,96364.55
2023-04-14T19:08:13.204Z,96361.98
2023-04-14T19:10:42.431Z,96361.18
2023-04-14T19:13:08.991Z,96358.36
2023-04-14T19:15:35.589Z,96357.89
2023-04-14T19:18:02.036Z,96350.70
2023-04-14T19:20:28.391Z,96352.77
2023-04-14T19:22:54.814Z,96351.91
2023-04-14T19:25:21.236Z,96350.14
2023-04-14T19:27:47.838Z,96346.29
2023-04-14T19:30:14.752Z,96345.56
2023-04-14T19:32:41.475Z,96347.58
2023-04-14T19:35:11.759Z,96346.24
2023-04-14T19:37:38.896Z,96350.64
2023-04-14T19:40:05.752Z,96354.92
2023-04-14T19:42:32.494Z,96356.73
2023-04-14T19:44:59.458Z,96358.63
2023-04-14T19:47:26.077Z,96356.43
2023-04-14T19:49:53.492Z,96358.00
2023-04-14T19:52:20.140Z,96351.80
2023-04-14T19:54:46.960Z,96347.71
2023-04-14T19:57:13.605Z,96342.83
2023-04-14T19:59:40.421Z,96341.23
2023-04-14T20:02:06.933Z,96338.13
2023-04-14T20:04:33.602Z,96339.30
2023-04-14T20:07:00.152Z,96339.45
2023-04-14T20:09:28.548Z,96340.33
2023-04-14T20:11:59.302Z,96342.95
2023-04-14T20:14:25.778Z,96347.68
2023-04-14T20:16:52.422Z,96348.59
2023-04-14T20:19:18.983Z,96352.71
2023-04-14T20:21:45.541Z,96353.03
2023-04-14T20:24:12.473Z,96354.56
2023-04-14T20:26:38.890Z,96356.27
2023-04-14T20:29:05.246Z,96354.81
2023-04-14T20:31:31.628Z,96353.84
2023-04-14T20:33:58.029Z,96355.14
2023-04-14T20:36:24.512Z,96357.10
2023-04-14T20:38:51.092Z,96359.50
2023-04-14T20:41:17.386Z,96356.40
2023-04-14T20:43:43.783Z,96357.30
2023-04-14T20:46:10.249Z,96353.60
2023-04-14T20:48:36.760Z,96348.52
2023-04-14T20:51:03.465Z,96347.09
2023-04-14T20:53:29.779Z,96350.89
2023-04-14T20:55:56.070Z,96351.03
2023-04-14T20:58:22.652Z,96357.66
2023-04-14T21:00:49.452Z,96361.66
2023-04-14T21:03:15.977Z,96366.52
2023-04-14T21:05:42.490Z,96365.80
2023-04-14T21:08:08.992Z,96363.92
2023-04-14T21:10:35.249Z,96362.86
2023-04-14T21:15:31.486Z,96358.73
2023-04-14T21:15:56.354Z,96346.71
2023-04-14T21:18:23.616Z,96355.25
2023-04-14T21:20:49.990Z,96364.92
2023-04-14T21:23:16.785Z,96368.12
2023-04-14T21:25:43.261Z,96370.36
2023-04-14T21:28:09.563Z,96377.75
2023-04-14T21:30:36.395Z,96381.61
2023-04-14T21:33:03.793Z,96383.16
2023-04-14T21:35:31.735Z,96378.41
2023-04-14T21:37:58.273Z,96373.75
2023-04-14T21:40:24.653Z,96378.39
2023-04-14T21:42:50.927Z,96382.67
2023-04-14T21:45:17.436Z,96391.72
2023-04-14T21:47:44.199Z,96392.23
2023-04-14T21:50:10.558Z,96392.27
2023-04-14T21:52:36.940Z,96397.27
2023-04-14T21:55:04.057Z,96391.65
2023-04-14T21:57:42.932Z,96386.52
2023-04-14T22:00:16.047Z,96396.02
2023-04-14T22:02:45.892Z,96394.39
2023-04-14T22:05:13.083Z,96394.87
2023-04-14T22:07:39.535Z,96403.21
2023-04-14T22:10:06.552Z,96394.85
2023-04-14T22:12:33.289Z,96397.08
2023-04-14T22:15:00.394Z,96398.74
2023-04-14T22:17:26.847Z,96403.52
2023-04-14T22:19:53.136Z,96411.24
2023-04-14T22:22:19.549Z,96412.92
2023-04-14T22:24:45.813Z,96423.19
2023-04-14T22:27:12.066Z,96426.46
2023-04-14T22:29:38.382Z,96427.34
2023-04-14T22:32:04.732Z,96420.84
2023-04-14T22:34:30.983Z,96411.93
2023-04-14T22:36:57.438Z,96419.46
2023-04-14T22:39:23.868Z,96422.58
2023-04-14T22:41:50.100Z,96422.40
2023-04-14T22:44:16.949Z,96424.13
2023-04-14T22:46:43.332Z,96425.15
2023-04-14T22:49:09.698Z,96436.30
2023-04-14T22:51:35.935Z,96440.32
2023-04-14T22:54:02.431Z,96441.31
2023-04-14T22:56:28.713Z,96444.26
2023-04-14T22:58:58.309Z,96438.11
2023-04-14T23:01:25.067Z,96446.84
2023-04-14T23:03:51.476Z,96451.50
2023-04-14T23:06:18.706Z,96455.35
2023-04-14T23:08:46.047Z,96455.02
2023-04-14T23:11:12.394Z,96459.45
2023-04-14T23:13:38.757Z,96462.58
2023-04-14T23:16:05.389Z,96461.55
2023-04-14T23:18:31.637Z,96459.05
2023-04-14T23:20:57.936Z,96455.42
2023-04-14T23:23:24.338Z,96459.43
2023-04-14T23:25:50.701Z,96458.97
2023-04-14T23:28:17.140Z,96458.91
2023-04-14T23:30:43.419Z,96460.52
2023-04-14T23:33:09.957Z,96463.02
2023-04-14T23:35:36.334Z,96459.81
2023-04-14T23:38:02.623Z,96460.20
2023-04-14T23:40:29.953Z,96460.33
2023-04-14T23:42:56.291Z,96470.10
2023-04-14T23:45:22.665Z,96467.93
2023-04-14T23:47:48.998Z,96463.95
2023-04-14T23:50:15.367Z,96463.77
2023-04-14T23:52:42.103Z,96460.54
2023-04-14T23:55:08.586Z,96464.66
2023-04-14T23:57:35.014Z,96472.16
